Time;durP1;ratioP1;P1;durP2;ratioP2;P2;SDS_P1;SDS_P2;PMS_P1;PMS_P2;Temp;Humidity;BMP_temperature;BMP_pressure;BME280_temperature;BME280_humidity;BME280_pressure;Samples;Min_cycle;Max_cycle;Signal;HPM_P1;HPM_P2
2023/05/01 00:00:31;;;;;;;6.63;3.65;;;;;;;11.28;83.73;101667.53;5090012;28;20028;-74
2023/05/01 00:02:56;;;;;;;6.32;4.22;;;;;;;11.27;84.02;101665.03;5088634;28;20485;-74
2023/05/01 00:05:22;;;;;;;7.20;3.75;;;;;;;11.26;83.82;101656.19;5089815;28;20136;-74
2023/05/01 00:07:48;;;;;;;8.55;3.47;;;;;;;11.21;83.59;101652.41;5089421;28;20056;-73
2023/05/01 00:10:14;;;;;;;10.95;3.45;;;;;;;11.25;83.92;101656.38;5089727;28;20042;-73
2023/05/01 00:12:39;;;;;;;7.20;4.00;;;;;;;11.23;83.71;101648.53;5089631;28;21096;-73
2023/05/01 00:15:05;;;;;;;10.88;4.30;;;;;;;11.22;84.37;101640.72;5089394;28;20077;-73
2023/05/01 00:17:31;;;;;;;7.05;3.45;;;;;;;11.22;83.68;101638.06;5088255;28;20383;-73
2023/05/01 00:19:56;;;;;;;7.57;3.65;;;;;;;11.18;83.79;101641.06;5089706;28;20032;-72
2023/05/01 00:22:22;;;;;;;9.48;3.20;;;;;;;11.17;83.45;101631.41;5089651;28;20107;-72
2023/05/01 00:24:48;;;;;;;4.32;3.20;;;;;;;11.18;83.90;101634.91;5089676;28;20494;-72
2023/05/01 00:27:14;;;;;;;6.40;3.65;;;;;;;11.15;83.55;101627.25;5089666;28;20107;-72
2023/05/01 00:29:40;;;;;;;8.85;3.60;;;;;;;11.14;83.79;101622.94;5089528;28;20189;-72
2023/05/01 00:32:06;;;;;;;5.68;3.70;;;;;;;11.14;83.74;101625.63;5089475;28;20039;-72
2023/05/01 00:34:31;;;;;;;5.50;3.83;;;;;;;11.13;83.76;101627.47;5089546;28;20021;-72
2023/05/01 00:36:57;;;;;;;7.10;4.18;;;;;;;11.11;84.17;101621.47;5088145;28;20034;-71
2023/05/01 00:39:23;;;;;;;6.40;3.85;;;;;;;11.13;84.70;101621.25;5089555;28;20059;-72
2023/05/01 00:41:48;;;;;;;7.07;3.20;;;;;;;11.06;83.93;101609.66;5089527;28;20486;-72
2023/05/01 00:44:13;;;;;;;8.15;3.88;;;;;;;11.10;83.66;101619.78;5089527;28;20390;-72
2023/05/01 00:46:39;;;;;;;6.20;3.17;;;;;;;11.09;83.74;101610.13;5089345;28;20454;-72
2023/05/01 00:49:04;;;;;;;8.10;3.50;;;;;;;11.08;84.73;101613.81;5089576;28;20500;-72
2023/05/01 00:51:30;;;;;;;6.13;4.10;;;;;;;11.08;83.51;101608.47;5089114;28;20052;-72
2023/05/01 00:54:01;;;;;;;6.60;3.10;;;;;;;11.07;83.54;101604.13;5089253;28;20085;-72
2023/05/01 00:56:27;;;;;;;10.02;4.72;;;;;;;11.07;83.49;101606.81;5089101;28;20043;-72
2023/05/01 00:58:52;;;;;;;8.50;3.75;;;;;;;11.07;83.87;101603.31;5089262;28;20106;-72
2023/05/01 01:01:21;;;;;;;10.27;3.90;;;;;;;11.07;83.39;101595.31;5089149;28;20032;-72
2023/05/01 01:03:47;;;;;;;7.15;3.90;;;;;;;11.03;83.89;101578.84;5089208;28;20028;-72
2023/05/01 01:06:39;;;;;;;7.68;4.38;;;;;;;11.06;83.80;101583.81;5089242;28;20036;-72
2023/05/01 01:09:07;;;;;;;;;;;;;;;11.09;83.16;101582.59;5089607;28;20035;-72
2023/05/01 01:11:41;;;;;;;11.00;3.90;;;;;;;11.06;83.79;101582.97;5089013;28;19923;-72
2023/05/01 01:14:15;;;;;;;7.53;3.67;;;;;;;10.99;83.92;101571.34;5089131;28;20028;-72
2023/05/01 01:16:53;;;;;;;7.20;3.72;;;;;;;11.03;83.87;101572.63;5089144;28;20020;-72
2023/05/01 01:19:19;;;;;;;5.60;3.33;;;;;;;11.01;84.12;101577.34;5089181;28;20047;-72
2023/05/01 01:21:48;;;;;;;8.20;3.70;;;;;;;11.00;84.20;101578.34;5089087;28;20027;-72
2023/05/01 01:24:23;;;;;;;8.07;3.80;;;;;;;11.01;84.20;101569.34;5088999;28;20112;-72
2023/05/01 01:27:16;;;;;;;6.50;3.55;;;;;;;11.01;83.67;101574.69;5091891;28;20483;-72
2023/05/01 01:29:47;;;;;;;5.13;3.45;;;;;;;10.97;85.01;101569.69;5092533;28;20024;-73
2023/05/01 01:32:53;;;;;;;7.32;4.03;;;;;;;11.00;84.96;101568.50;5092689;28;20032;-74
2023/05/01 01:35:24;;;;;;;9.95;4.25;;;;;;;10.96;84.89;101565.38;5091134;28;20016;-74
2023/05/01 01:38:16;;;;;;;6.78;3.80;;;;;;;10.96;84.80;101560.03;5092507;28;20054;-74
2023/05/01 01:40:58;;;;;;;8.95;4.00;;;;;;;10.91;85.22;101550.91;5092401;28;20016;-74
2023/05/01 01:43:25;;;;;;;5.57;3.97;;;;;;;10.85;84.96;101541.78;5092362;28;20036;-74
2023/05/01 01:46:01;;;;;;;7.32;3.50;;;;;;;10.82;85.21;101528.81;5092388;28;20024;-74
2023/05/01 01:48:30;;;;;;;11.55;4.47;;;;;;;10.86;85.84;101539.94;5092211;28;20166;-74
2023/05/01 01:50:58;;;;;;;9.02;3.72;;;;;;;10.81;85.50;101534.31;5090667;28;20028;-74
2023/05/01 01:53:25;;;;;;;6.40;3.33;;;;;;;10.77;86.33;101533.03;5092065;28;20036;-74
2023/05/01 01:55:53;;;;;;;8.35;3.30;;;;;;;10.73;86.23;101522.72;5092232;28;20213;-74
2023/05/01 01:58:24;;;;;;;8.93;3.97;;;;;;;10.73;86.25;101530.72;5092111;28;20246;-74
2023/05/01 02:00:51;;;;;;;8.32;3.60;;;;;;;10.70;87.28;101520.41;5092110;28;20028;-74
2023/05/01 02:03:18;;;;;;;9.18;3.60;;;;;;;10.64;87.00;101509.66;5092004;28;20036;-74
2023/05/01 02:05:46;;;;;;;7.50;4.10;;;;;;;10.68;87.13;101517.09;5091860;28;20067;-74
2023/05/01 02:08:13;;;;;;;12.85;3.83;;;;;;;10.65;87.74;101513.97;5091931;28;20047;-74
2023/05/01 02:10:41;;;;;;;11.60;4.82;;;;;;;10.63;87.37;101514.13;5091791;28;20510;-73
2023/05/01 02:13:08;;;;;;;7.75;4.00;;;;;;;10.58;88.32;101513.84;5091782;28;20403;-73
2023/05/01 02:15:33;;;;;;;10.43;4.65;;;;;;;10.62;88.60;101509.00;5091640;28;20035;-73
2023/05/01 02:18:02;;;;;;;8.00;3.67;;;;;;;10.59;88.49;101509.38;5091336;28;20043;-73
2023/05/01 02:20:29;;;;;;;8.30;3.83;;;;;;;10.60;90.15;101500.34;5091677;28;20039;-73
2023/05/01 02:22:56;;;;;;;12.30;5.15;;;;;;;10.56;89.06;101504.38;5091689;28;20039;-73
2023/05/01 02:25:21;;;;;;;8.63;4.43;;;;;;;10.57;88.96;101500.72;5091549;28;20032;-73
2023/05/01 02:27:54;;;;;;;8.45;3.08;;;;;;;10.57;89.64;101500.72;5091528;28;20047;-73
2023/05/01 02:30:20;;;;;;;8.57;4.53;;;;;;;10.46;89.03;101475.31;5091469;28;20500;-73
2023/05/01 02:32:45;;;;;;;8.98;3.92;;;;;;;10.54;89.42;101483.22;5091430;28;20146;-73
2023/05/01 02:35:11;;;;;;;7.03;3.95;;;;;;;10.52;90.06;101479.91;5090118;28;20387;-73
2023/05/01 02:37:37;;;;;;;5.78;3.40;;;;;;;10.56;89.57;101493.69;5090902;28;20399;-73
2023/05/01 02:40:04;;;;;;;8.55;3.75;;;;;;;10.53;89.85;101487.75;5106598;28;20081;-73
2023/05/01 02:42:31;;;;;;;7.35;3.63;;;;;;;10.54;90.31;101483.22;5091304;28;20031;-73
2023/05/01 02:45:21;;;;;;;6.82;3.67;;;;;;;10.55;89.56;101490.22;5091186;28;20028;-73
2023/05/01 02:47:50;;;;;;;10.35;4.28;;;;;;;10.59;88.94;101486.19;5082594;28;20491;-73
2023/05/01 02:50:16;;;;;;;8.32;4.25;;;;;;;10.54;90.23;101472.56;5089654;28;20024;-73
2023/05/01 02:52:43;;;;;;;6.72;3.95;;;;;;;10.54;88.43;101467.22;5090837;28;20051;-73
2023/05/01 02:55:09;;;;;;;9.95;4.03;;;;;;;10.47;89.78;101472.44;5091009;28;20032;-73
2023/05/01 02:57:34;;;;;;;6.85;3.53;;;;;;;10.40;89.76;101458.19;5090859;28;20119;-73
2023/05/01 03:00:00;;;;;;;7.93;4.50;;;;;;;10.43;89.66;101460.50;5090844;28;20028;-73
2023/05/01 03:02:25;;;;;;;9.30;4.15;;;;;;;10.42;89.97;101464.16;5090807;28;20024;-73
2023/05/01 03:04:51;;;;;;;12.02;3.97;;;;;;;10.37;89.21;101444.38;5090786;28;20492;-73
2023/05/01 03:07:16;;;;;;;8.70;3.85;;;;;;;10.38;89.44;101457.53;5090846;28;20024;-73
2023/05/01 03:09:41;;;;;;;8.07;5.38;;;;;;;10.38;90.28;101451.38;5090742;28;20540;-73
2023/05/01 03:12:07;;;;;;;7.57;4.05;;;;;;;10.36;90.02;101448.88;5090592;28;20145;-73
2023/05/01 03:14:32;;;;;;;6.78;3.55;;;;;;;10.35;89.65;101451.72;5090575;28;20075;-73
2023/05/01 03:16:57;;;;;;;9.75;3.33;;;;;;;10.33;89.85;101449.25;5090749;28;20085;-73
2023/05/01 03:19:23;;;;;;;8.80;4.85;;;;;;;10.30;89.60;101450.44;5090792;28;20122;-73
2023/05/01 03:21:48;;;;;;;7.88;3.88;;;;;;;10.28;89.49;101438.28;5090553;28;20063;-73
2023/05/01 03:24:14;;;;;;;9.60;4.18;;;;;;;10.29;89.15;101447.94;5090412;28;20020;-73
2023/05/01 03:26:39;;;;;;;7.93;3.33;;;;;;;10.29;89.43;101442.59;5090346;28;20124;-73
2023/05/01 03:29:04;;;;;;;7.13;4.07;;;;;;;10.19;89.82;101418.00;5090348;28;20039;-73
2023/05/01 03:31:30;;;;;;;9.77;4.20;;;;;;;10.27;89.39;101428.59;5090214;28;20035;-73
2023/05/01 03:33:55;;;;;;;10.48;4.38;;;;;;;10.22;89.94;101412.34;5088850;28;20032;-73
2023/05/01 03:36:21;;;;;;;11.75;5.38;;;;;;;10.31;89.83;101425.41;5090212;28;20119;-73
2023/05/01 03:38:47;;;;;;;12.52;5.03;;;;;;;10.29;89.87;101429.28;5090219;28;20055;-73
2023/05/01 03:41:12;;;;;;;10.90;5.75;;;;;;;10.30;90.75;101422.94;5090163;28;20019;-73
2023/05/01 03:43:37;;;;;;;13.60;4.22;;;;;;;10.27;90.56;101417.91;5090066;28;20378;-73
2023/05/01 03:46:03;;;;;;;9.10;4.63;;;;;;;10.27;91.20;101415.25;5090005;28;20038;-73
2023/05/01 03:48:28;;;;;;;9.68;4.55;;;;;;;10.27;91.12;101420.59;5089406;28;20040;-73
2023/05/01 03:50:53;;;;;;;12.05;4.80;;;;;;;10.25;92.45;101415.44;5089742;28;20020;-73
2023/05/01 03:53:19;;;;;;;8.70;4.70;;;;;;;10.21;92.24;101408.00;5088581;28;20047;-73
2023/05/01 03:55:44;;;;;;;10.85;4.72;;;;;;;10.24;91.95;101412.97;5088744;28;20034;-73
2023/05/01 03:58:09;;;;;;;10.00;4.28;;;;;;;10.18;92.61;101413.69;5089827;28;20540;-73
2023/05/01 04:00:36;;;;;;;9.75;4.32;;;;;;;10.19;92.25;101412.66;5088637;28;20135;-73
2023/05/01 04:03:01;;;;;;;8.98;4.60;;;;;;;10.09;92.02;101411.09;5088523;28;20070;-73
2023/05/01 04:05:27;;;;;;;11.68;5.20;;;;;;;10.12;91.92;101409.91;5089783;28;20436;-73
2023/05/01 04:07:52;;;;;;;10.98;5.05;;;;;;;10.11;92.59;101408.22;5089791;28;20105;-73
2023/05/01 04:10:18;;;;;;;7.15;4.20;;;;;;;10.08;92.02;101404.09;5089595;28;20101;-73
2023/05/01 04:12:43;;;;;;;11.95;5.05;;;;;;;10.06;92.53;101403.47;5089475;28;20043;-73
2023/05/01 04:15:09;;;;;;;11.65;4.93;;;;;;;10.09;92.88;101402.28;5089570;28;20064;-73
2023/05/01 04:17:35;;;;;;;10.63;4.75;;;;;;;10.07;93.56;101410.44;5089604;28;20075;-73
2023/05/01 04:20:01;;;;;;;10.75;5.38;;;;;;;10.02;93.59;101399.50;5088127;28;20028;-73
2023/05/01 04:22:26;;;;;;;15.30;5.05;;;;;;;10.08;93.53;101409.41;5089766;28;20822;-73
2023/05/01 04:24:52;;;;;;;11.15;5.13;;;;;;;10.09;93.50;101404.94;5089493;28;20055;-73
2023/05/01 04:27:18;;;;;;;9.88;4.88;;;;;;;10.02;93.87;101396.81;5088167;28;20552;-73
2023/05/01 04:29:44;;;;;;;9.63;4.78;;;;;;;10.04;95.20;101397.47;5089525;28;20107;-73
2023/05/01 04:32:11;;;;;;;15.25;5.93;;;;;;;10.01;93.57;101392.50;5089353;28;20111;-73
2023/05/01 04:34:36;;;;;;;9.88;4.82;;;;;;;10.03;93.62;101394.97;5087919;28;20480;-73
2023/05/01 04:37:02;;;;;;;13.60;6.00;;;;;;;10.02;93.43;101394.16;5089386;28;20051;-73
2023/05/01 04:39:27;;;;;;;10.52;4.90;;;;;;;10.03;93.50;101387.84;5089376;28;20039;-73
2023/05/01 04:41:53;;;;;;;12.77;5.80;;;;;;;10.05;93.78;101393.78;5089293;28;20028;-73
2023/05/01 04:44:18;;;;;;;11.57;5.28;;;;;;;10.05;94.00;101390.31;5088038;28;20048;-73
2023/05/01 04:46:44;;;;;;;10.63;5.78;;;;;;;9.98;94.04;101384.88;5089427;28;20459;-73
2023/05/01 04:49:09;;;;;;;13.75;5.75;;;;;;;10.02;94.93;101388.81;5089041;28;20059;-74
2023/05/01 04:51:34;;;;;;;13.98;5.40;;;;;;;10.04;95.05;101388.66;5088964;28;20052;-74
2023/05/01 04:54:00;;;;;;;13.18;5.40;;;;;;;10.02;93.81;101390.66;5089094;28;20471;-74
2023/05/01 04:56:26;;;;;;;8.73;4.80;;;;;;;10.03;94.58;101387.84;5089122;28;20067;-74
2023/05/01 04:58:51;;;;;;;15.32;5.15;;;;;;;10.10;94.72;101395.94;5089158;28;20527;-73
2023/05/01 05:01:17;;;;;;;10.60;4.63;;;;;;;10.11;95.09;101400.25;5092603;28;20024;-73
2023/05/01 05:03:42;;;;;;;9.68;5.57;;;;;;;10.10;95.33;101410.06;5091527;28;20036;-73
2023/05/01 05:06:08;;;;;;;11.15;5.68;;;;;;;10.13;96.31;101416.88;5092916;28;20035;-73
2023/05/01 05:08:33;;;;;;;10.60;4.32;;;;;;;10.12;96.48;101417.09;5092324;28;20082;-74
2023/05/01 05:10:59;;;;;;;13.77;6.63;;;;;;;10.12;98.59;101414.41;5092830;28;20115;-74
2023/05/01 05:13:25;;;;;;;12.88;4.90;;;;;;;10.10;97.92;101407.41;5092708;28;20024;-73
2023/05/01 05:15:50;;;;;;;10.05;5.40;;;;;;;10.14;97.43;101415.03;5092644;28;20032;-71
2023/05/01 05:18:16;;;;;;;7.57;3.85;;;;;;;10.14;97.16;101412.38;5092488;28;20043;-73
2023/05/01 05:20:41;;;;;;;12.65;6.05;;;;;;;10.19;97.45;101410.00;5091033;28;20028;-70
2023/05/01 05:23:06;;;;;;;12.95;5.00;;;;;;;10.17;96.07;101412.88;5092518;28;20035;-70
2023/05/01 05:25:32;;;;;;;11.43;5.75;;;;;;;10.14;94.89;101415.03;5092580;28;20036;-70
2023/05/01 05:27:59;;;;;;;9.82;4.88;;;;;;;10.17;94.82;101412.03;5092406;28;20386;-70
2023/05/01 05:30:25;;;;;;;17.27;5.97;;;;;;;10.18;94.14;101411.03;5092264;28;20024;-70
2023/05/01 05:32:50;;;;;;;14.35;5.38;;;;;;;10.14;95.27;101405.22;5090955;28;20089;-71
2023/05/01 05:35:16;;;;;;;13.77;5.07;;;;;;;10.16;94.85;101405.84;5092111;28;20044;-70
2023/05/01 05:37:41;;;;;;;12.75;5.40;;;;;;;10.17;95.45;101406.72;5092363;28;20140;-71
2023/05/01 05:40:08;;;;;;;12.75;5.20;;;;;;;10.23;95.89;101409.47;5092191;28;20081;-71
2023/05/01 05:42:33;;;;;;;10.02;4.63;;;;;;;10.22;95.61;101409.66;5092287;28;20425;-71
2023/05/01 05:44:58;;;;;;;10.75;5.57;;;;;;;10.16;94.00;101394.38;5092361;28;20031;-71
2023/05/01 05:47:24;;;;;;;25.85;9.13;;;;;;;10.25;94.34;101406.63;5092019;28;20085;-71
2023/05/01 05:49:49;;;;;;;10.77;5.03;;;;;;;10.26;94.59;101393.09;5092222;28;20055;-71
2023/05/01 05:52:15;;;;;;;10.95;5.03;;;;;;;10.29;93.64;101397.28;5092031;28;20493;-71
2023/05/01 05:54:41;;;;;;;11.10;5.90;;;;;;;10.32;93.67;101388.91;5091631;28;20032;-71
2023/05/01 05:57:06;;;;;;;12.20;5.25;;;;;;;10.34;95.04;101394.06;5091996;28;20059;-71
2023/05/01 05:59:32;;;;;;;10.90;4.72;;;;;;;10.38;94.42;101390.06;5092069;28;20027;-71
2023/05/01 06:01:57;;;;;;;10.23;5.00;;;;;;;10.47;93.72;101391.59;5090364;28;20078;-71
2023/05/01 06:04:23;;;;;;;13.55;6.07;;;;;;;10.43;93.37;101380.50;5091763;28;20063;-71
2023/05/01 06:06:48;;;;;;;13.95;5.32;;;;;;;10.49;93.26;101385.09;5091514;28;20028;-72
2023/05/01 06:09:16;;;;;;;16.38;6.60;;;;;;;10.55;92.65;101385.38;5090383;28;20451;-71
2023/05/01 06:11:41;;;;;;;11.43;5.50;;;;;;;10.56;93.14;101379.84;5090609;28;20040;-71
2023/05/01 06:14:06;;;;;;;12.35;5.97;;;;;;;10.64;92.41;101384.28;5091616;28;20483;-73
2023/05/01 06:16:33;;;;;;;12.88;5.90;;;;;;;10.71;93.96;101382.50;5091050;28;20067;-71
2023/05/01 06:18:58;;;;;;;10.95;6.00;;;;;;;10.78;93.42;101383.44;5091615;28;20035;-71
2023/05/01 06:21:24;;;;;;;12.55;5.78;;;;;;;10.83;93.23;101386.38;5091244;28;20035;-71
2023/05/01 06:23:49;;;;;;;12.35;5.90;;;;;;;10.94;93.13;101382.41;5091354;28;20043;-71
2023/05/01 06:26:14;;;;;;;11.80;5.95;;;;;;;10.99;91.70;101385.34;5091173;28;20039;-71
2023/05/01 06:28:40;;;;;;;13.95;6.13;;;;;;;11.00;92.02;101383.50;5091292;28;20472;-71
2023/05/01 06:31:06;;;;;;;18.25;7.28;;;;;;;11.03;92.86;101386.66;5090996;28;20027;-71
2023/05/01 06:33:31;;;;;;;14.68;6.03;;;;;;;11.10;92.70;101384.03;5091286;28;20036;-71
2023/05/01 06:35:58;;;;;;;14.30;6.88;;;;;;;11.15;91.53;101377.13;5091075;28;20024;-71
2023/05/01 06:38:24;;;;;;;13.25;7.20;;;;;;;11.23;90.95;101378.84;5091224;28;20028;-71
2023/05/01 06:40:50;;;;;;;14.13;6.05;;;;;;;11.36;90.34;101380.84;5090997;28;20395;-71
2023/05/01 06:43:15;;;;;;;12.20;5.95;;;;;;;11.50;90.09;101374.66;5106438;28;20028;-71
2023/05/01 06:45:41;;;;;;;13.43;7.28;;;;;;;11.71;90.29;101371.16;5106187;28;20128;-71
2023/05/01 06:48:06;;;;;;;9.70;5.28;;;;;;;11.91;86.47;101375.88;5090939;28;20031;-71
2023/05/01 06:50:32;;;;;;;12.80;5.43;;;;;;;12.11;86.79;101384.88;5090781;28;20555;-71
2023/05/01 06:52:59;;;;;;;13.13;6.88;;;;;;;12.28;84.30;101383.56;5090784;28;20059;-71
2023/05/01 06:55:25;;;;;;;14.70;5.68;;;;;;;12.45;85.11;101376.09;5090726;28;20032;-71
2023/05/01 06:57:50;;;;;;;17.13;6.57;;;;;;;12.61;83.29;101376.78;5088846;28;20036;-72
2023/05/01 07:00:16;;;;;;;12.63;6.03;;;;;;;12.74;83.27;101386.75;5082285;28;20157;-71
2023/05/01 07:02:43;;;;;;;13.10;6.25;;;;;;;12.82;83.23;101379.38;5084525;28;20064;-69
2023/05/01 07:05:09;;;;;;;10.35;6.28;;;;;;;12.94;81.29;101385.81;5084069;28;20051;-72
2023/05/01 07:07:37;;;;;;;12.80;6.20;;;;;;;12.94;81.50;101368.91;5084803;28;20047;-71
2023/05/01 07:10:03;;;;;;;14.68;7.90;;;;;;;12.91;80.70;101380.84;5084593;28;20024;-72
2023/05/01 07:12:28;;;;;;;9.35;5.65;;;;;;;12.99;80.56;101379.03;5084147;28;20085;-71
2023/05/01 07:14:55;;;;;;;14.80;6.50;;;;;;;13.06;81.07;101386.06;5084453;28;20051;-71
2023/05/01 07:17:21;;;;;;;11.52;6.65;;;;;;;13.09;80.66;101384.84;5083344;28;20059;-72
2023/05/01 07:19:46;;;;;;;14.70;7.15;;;;;;;13.16;82.36;101383.84;5084484;28;20055;-72
2023/05/01 07:22:11;;;;;;;12.82;7.18;;;;;;;13.17;80.14;101371.28;5084092;28;20060;-71
2023/05/01 07:24:37;;;;;;;13.68;6.50;;;;;;;13.40;80.12;101378.19;5083955;28;20032;-71
2023/05/01 07:27:02;;;;;;;19.48;8.30;;;;;;;13.62;80.51;101374.28;5084554;28;20056;-71
2023/05/01 07:29:28;;;;;;;13.88;7.78;;;;;;;13.80;80.54;101365.66;5083625;28;20031;-71
2023/05/01 07:31:54;;;;;;;13.75;6.82;;;;;;;13.93;79.64;101379.06;5083963;28;20369;-71
2023/05/01 07:34:20;;;;;;;13.10;7.38;;;;;;;13.99;78.12;101380.94;5084244;28;20042;-71
2023/05/01 07:36:45;;;;;;;13.10;8.10;;;;;;;14.05;76.80;101376.63;5083266;28;20111;-73
2023/05/01 07:39:12;;;;;;;16.55;7.30;;;;;;;14.06;76.69;101372.88;5083264;28;20123;-71
2023/05/01 07:41:37;;;;;;;13.35;7.65;;;;;;;14.12;77.15;101380.13;5083621;28;20019;-71
2023/05/01 07:44:03;;;;;;;11.02;6.45;;;;;;;14.25;77.96;101374.75;5084000;28;20024;-71
2023/05/01 07:46:29;;;;;;;14.13;6.95;;;;;;;14.48;76.23;101371.59;5083760;28;20500;-72
2023/05/01 07:48:54;;;;;;;11.88;6.88;;;;;;;14.67;73.82;101377.16;5081495;28;20590;-71
2023/05/01 07:51:20;;;;;;;14.13;8.30;;;;;;;14.71;73.18;101377.56;5083413;28;20040;-71
2023/05/01 07:53:48;;;;;;;14.38;7.32;;;;;;;14.85;73.38;101376.47;5088047;28;20083;-71
2023/05/01 07:56:13;;;;;;;13.23;6.60;;;;;;;14.93;74.22;101370.88;5088027;28;20044;-72
2023/05/01 07:58:41;;;;;;;18.73;9.45;;;;;;;15.04;75.47;101370.22;5089371;28;20103;-72
2023/05/01 08:01:08;;;;;;;15.00;6.93;;;;;;;15.16;73.19;101366.88;5088855;28;20031;-72
2023/05/01 08:03:33;;;;;;;17.95;7.20;;;;;;;15.26;71.85;101373.41;5088818;28;20043;-71
2023/05/01 08:05:58;;;;;;;12.75;7.10;;;;;;;15.46;75.63;101373.31;5088715;28;20414;-71
2023/05/01 08:08:24;;;;;;;10.18;6.63;;;;;;;15.72;70.72;101380.41;5087463;28;20472;-72
2023/05/01 08:10:53;;;;;;;11.48;6.30;;;;;;;16.39;72.72;101382.53;5088680;28;20031;-72
2023/05/01 08:13:18;;;;;;;13.05;7.15;;;;;;;17.24;68.95;101371.84;5088634;28;20423;-71
2023/05/01 08:15:47;;;;;;;13.93;7.32;;;;;;;18.30;62.52;101368.56;5088474;28;20024;-72
2023/05/01 08:18:18;;;;;;;12.02;6.97;;;;;;;18.99;62.81;101374.09;5088685;28;20444;-71
2023/05/01 08:20:45;;;;;;;12.93;7.45;;;;;;;20.27;58.35;101363.63;5089074;28;20024;-72
2023/05/01 08:23:10;;;;;;;10.45;6.88;;;;;;;21.22;53.43;101368.91;5089463;28;20035;-71
2023/05/01 08:25:36;;;;;;;12.80;7.38;;;;;;;22.44;51.30;101368.31;5089499;28;20539;-72
2023/05/01 08:28:02;;;;;;;11.68;6.47;;;;;;;23.23;46.04;101369.19;5089545;28;20429;-72
2023/05/01 08:30:27;;;;;;;11.75;6.72;;;;;;;23.99;44.73;101371.19;5088180;28;20031;-72
2023/05/01 08:32:53;;;;;;;10.90;5.57;;;;;;;24.79;42.35;101368.56;5088164;28;20053;-72
2023/05/01 08:35:19;;;;;;;13.82;7.10;;;;;;;25.62;40.46;101366.16;5091422;28;20034;-70
2023/05/01 08:37:44;;;;;;;12.88;6.25;;;;;;;26.04;38.50;101365.53;5093599;28;20081;-70
2023/05/01 08:40:10;;;;;;;12.65;5.95;;;;;;;26.38;39.52;101361.91;5091911;28;20035;-70
2023/05/01 08:42:37;;;;;;;12.30;6.78;;;;;;;26.05;38.12;101364.47;5093331;28;20107;-70
2023/05/01 08:45:06;;;;;;;10.27;5.90;;;;;;;26.23;39.04;101366.44;5093335;28;20058;-70
2023/05/01 08:47:38;;;;;;;10.18;5.70;;;;;;;25.46;39.39;101362.72;5092864;28;20039;-70
2023/05/01 08:50:08;;;;;;;;;;;;;;;25.08;47.61;101362.41;5093284;28;20036;-71
2023/05/01 08:52:35;;;;;;;17.00;6.68;;;;;;;22.68;43.32;101361.38;5093131;28;20010;-70
2023/05/01 08:55:02;;;;;;;11.05;5.68;;;;;;;21.66;46.79;101361.47;5093322;28;20040;-70
2023/05/01 08:57:29;;;;;;;10.63;6.47;;;;;;;20.90;50.10;101358.78;5091915;28;20039;-70
2023/05/01 08:59:56;;;;;;;10.82;6.05;;;;;;;20.24;49.92;101366.81;5093083;28;20028;-69
2023/05/01 09:02:23;;;;;;;12.25;6.80;;;;;;;19.86;53.36;101356.78;5093109;28;20038;-70
2023/05/01 09:04:50;;;;;;;14.77;6.80;;;;;;;19.76;53.56;101353.91;5093231;28;20028;-70
2023/05/01 09:07:15;;;;;;;11.32;6.35;;;;;;;19.52;55.47;101356.72;5093031;28;20043;-69
2023/05/01 09:09:40;;;;;;;10.65;6.25;;;;;;;19.36;57.22;101352.09;5092341;28;20071;-71
2023/05/01 09:12:20;;;;;;;18.88;7.90;;;;;;;19.16;54.58;101364.19;5092659;28;20139;-70
2023/05/01 09:14:45;;;;;;;13.15;7.07;;;;;;;18.85;54.55;101356.53;5092361;28;20023;-70
2023/05/01 09:17:12;;;;;;;11.20;6.63;;;;;;;18.67;56.41;101365.56;5092389;28;20032;-70
2023/05/01 09:19:39;;;;;;;11.10;5.90;;;;;;;18.65;55.99;101360.41;5092697;28;20432;-70
2023/05/01 09:22:05;;;;;;;11.98;7.03;;;;;;;18.52;55.55;101352.56;5092645;28;20116;-70
2023/05/01 09:24:30;;;;;;;17.83;8.45;;;;;;;18.76;59.78;101359.59;5092242;28;20538;-70
2023/05/01 09:26:57;;;;;;;12.32;7.38;;;;;;;18.92;56.58;101362.63;5092499;28;20379;-70
2023/05/01 09:29:40;;;;;;;8.50;6.38;;;;;;;19.08;59.41;101355.63;5092482;28;20090;-70
2023/05/01 09:32:15;;;;;;;20.88;8.02;;;;;;;19.11;57.48;101357.84;5092361;28;20379;-70
2023/05/01 09:34:42;;;;;;;11.50;7.22;;;;;;;18.79;55.01;101359.13;5092365;28;20024;-70
2023/05/01 09:37:11;;;;;;;11.00;6.00;;;;;;;18.63;56.32;101354.44;5092332;28;20131;-73
2023/05/01 09:39:37;;;;;;;11.52;5.65;;;;;;;18.46;55.58;101361.63;5092371;28;20398;-74
2023/05/01 09:42:02;;;;;;;16.15;7.75;;;;;;;18.44;56.54;101363.72;5092274;28;20028;-73
2023/05/01 09:44:27;;;;;;;11.82;7.55;;;;;;;18.35;55.28;101360.56;5092206;28;20063;-73
2023/05/01 09:46:53;;;;;;;14.13;8.48;;;;;;;18.42;57.48;101360.44;5090897;28;20467;-73
2023/05/01 09:49:19;;;;;;;13.15;7.28;;;;;;;18.46;58.80;101356.22;5107295;28;20133;-74
2023/05/01 09:51:44;;;;;;;13.10;6.72;;;;;;;18.71;59.41;101361.34;5090341;28;20146;-73
2023/05/01 09:54:19;;;;;;;11.68;6.78;;;;;;;18.82;55.55;101358.63;5090540;28;20035;-74
2023/05/01 09:56:46;;;;;;;10.45;6.13;;;;;;;18.55;55.06;101354.81;5090499;28;20524;-73
2023/05/01 09:59:19;;;;;;;11.27;6.72;;;;;;;18.60;56.63;101357.59;5091887;28;20101;-74
2023/05/01 10:01:47;;;;;;;13.27;7.63;;;;;;;18.70;56.81;101355.09;5091649;28;20154;-73
2023/05/01 10:04:13;;;;;;;11.73;7.38;;;;;;;18.66;55.41;101345.84;5091788;28;20055;-73
2023/05/01 10:06:39;;;;;;;14.15;7.50;;;;;;;18.60;55.31;101352.19;5091727;28;20055;-73
2023/05/01 10:09:15;;;;;;;12.00;6.85;;;;;;;18.66;56.53;101353.16;5091457;28;20039;-73
2023/05/01 10:11:54;;;;;;;9.32;6.65;;;;;;;18.62;56.69;101360.88;5091645;28;20093;-73
2023/05/01 10:14:22;;;;;;;11.27;7.25;;;;;;;18.74;55.41;101350.06;5091701;28;20036;-73
2023/05/01 10:16:48;;;;;;;14.82;7.05;;;;;;;18.88;57.58;101356.03;5091585;28;20104;-73
2023/05/01 10:19:16;;;;;;;15.38;7.93;;;;;;;19.11;58.52;101358.66;5091429;28;20058;-73
2023/05/01 10:21:41;;;;;;;12.05;7.18;;;;;;;19.28;54.71;101356.00;5091550;28;20039;-74
2023/05/01 10:24:08;;;;;;;10.35;7.35;;;;;;;19.42;54.05;101359.25;5091439;28;20099;-73
2023/05/01 10:26:35;;;;;;;11.40;7.20;;;;;;;19.65;55.70;101361.00;5091381;28;20028;-73
2023/05/01 10:29:01;;;;;;;12.73;7.68;;;;;;;19.88;56.56;101355.44;5091352;28;20048;-73
2023/05/01 10:31:31;;;;;;;17.50;9.15;;;;;;;20.05;59.01;101360.88;5088552;28;20035;-71
2023/05/01 10:33:57;;;;;;;10.43;6.20;;;;;;;20.05;53.30;101354.63;5084355;28;20110;-71
2023/05/01 10:36:33;;;;;;;12.68;6.53;;;;;;;20.09;54.79;101362.00;5084992;28;20513;-77
2023/05/01 10:38:59;;;;;;;12.00;8.15;;;;;;;20.09;53.25;101359.28;5085037;28;20066;-76
2023/05/01 10:41:57;;;;;;;14.65;7.60;;;;;;;20.21;57.22;101353.78;5084301;28;20024;-74
2023/05/01 10:44:25;;;;;;;13.40;7.57;;;;;;;20.10;55.55;101357.41;5052185;28;20040;-73
2023/05/01 10:46:50;;;;;;;13.15;7.50;;;;;;;20.12;54.25;101358.81;5091004;28;20024;-73
2023/05/01 10:49:16;;;;;;;11.73;6.47;;;;;;;20.19;53.64;101355.09;5091238;28;20035;-74
2023/05/01 10:51:57;;;;;;;13.15;7.60;;;;;;;20.33;55.74;101350.97;5090489;28;20048;-73
2023/05/01 10:54:27;;;;;;;15.30;7.25;;;;;;;20.28;52.30;101353.63;5090779;28;20043;-74
2023/05/01 10:56:55;;;;;;;13.98;7.28;;;;;;;20.15;50.44;101354.78;5090615;28;20378;-74
2023/05/01 10:59:20;;;;;;;13.55;7.00;;;;;;;20.31;52.03;101347.69;5090417;28;20482;-74
2023/05/01 11:01:48;;;;;;;14.73;8.30;;;;;;;20.49;52.53;101350.13;5090616;28;20103;-74
2023/05/01 11:04:23;;;;;;;13.27;6.82;;;;;;;20.62;52.87;101346.25;5090682;28;20101;-73
2023/05/01 11:07:17;;;;;;;19.08;7.43;;;;;;;20.63;53.82;101347.06;5090534;28;20027;-73
2023/05/01 11:09:44;;;;;;;12.85;6.82;;;;;;;20.30;53.73;101355.00;5082967;28;20047;-73
2023/05/01 11:12:11;;;;;;;12.50;7.68;;;;;;;20.16;57.34;101344.78;5090477;28;20035;-74
2023/05/01 11:14:52;;;;;;;11.57;7.00;;;;;;;20.26;55.45;101356.56;5090402;28;20032;-73
2023/05/01 11:17:39;;;;;;;12.82;7.78;;;;;;;20.27;57.61;101351.97;5090350;28;20069;-73
2023/05/01 11:20:09;;;;;;;15.18;7.70;;;;;;;20.12;53.08;101353.41;5090465;28;20110;-73